Flight Track Log - Related Links

Times and Time Zones

All times are in EDT time to prevent confusion due to time zone crossing. See the KAP46 flight status page for this flight to view local times or setup timezone preferences in your user account.

Time Position Orientation Groundspeed Altitude Reporting Facility
EDT Latitude Longitude Course Direction KTS MPH feet Rate Location/Type
Fri 07:11:54 PM 42.8192 -73.8383 337° Northwest 137 158 1,500  Level Boston Center
Fri 07:12:55 PM 42.8564 -73.8506 346° North 136 157 1,800 425 Climbing Boston Center
Fri 07:14:01 PM 42.8958 -73.8628 347° North 136 157 2,400 586 Climbing Boston Center
Fri 07:15:08 PM 42.9331 -73.8806 341° North 127 146 3,100 545 Climbing Boston Center
Fri 07:16:02 PM 42.9622 -73.8983 336° Northwest 124 143 3,500 522 Climbing Boston Center
Fri 07:17:03 PM 42.9972 -73.9133 343° North 124 143 4,100 595 Climbing Boston Center
Fri 07:18:03 PM 43.0283 -73.9283 341° North 123 142 4,700 513 Climbing Boston Center
Fri 07:19:00 PM 43.0575 -73.9406 343° North 124 143 5,100 483 Climbing Boston Center
Fri 07:19:30 PM 43.0761 -73.9522 335° Northwest 131 151 5,400 545 Climbing Boston Center
Fri 07:20:28 PM 43.1092 -73.9644 345° North 131 151 5,900 458 Climbing Boston Center
Fri 07:21:28 PM 43.1464 -73.9825 341° North 131 151 6,300 443 Climbing Boston Center
Fri 07:22:30 PM 43.1797 -73.9975 342° North 136 157 6,800 587 Climbing Boston Center
Fri 07:23:00 PM 43.2003 -74.0094 337° Northwest 135 155 7,200 590 Climbing Boston Center
Fri 07:23:31 PM 43.2147 -74.0128 350° North 136 157 7,400 375 Climbing Boston Center
Fri 07:24:04 PM 43.2356 -74.0247 337° Northwest 133 153 7,600 277 Climbing Boston Center
Fri 07:25:41 PM 43.2914 -74.0489 343° North 143 165 8,000 153 Climbing Boston Center
Fri 07:26:41 PM 43.3369 -74.0786 335° Northwest 155 178 8,000  Level Boston Center
Fri 07:27:42 PM 43.3742 -74.0967 341° North 155 178 8,000 -50 Level Boston Center
Fri 07:28:42 PM 43.4114 -74.1206 335° Northwest 155 178 7,900  Descending Boston Center
Fri 07:29:40 PM 43.4569 -74.1333 348° North 155 178 8,000 102 Climbing Boston Center
Fri 07:30:40 PM 43.4964 -74.1544 339° North 155 178 8,100 298 Climbing Boston Center
Fri 07:31:41 PM 43.5336 -74.1697 343° North 149 171 8,600 541 Climbing Boston Center
Fri 07:32:42 PM 43.5750 -74.1853 345° North 149 171 9,200 541 Climbing Boston Center
Fri 07:33:43 PM 43.6142 -74.2036 341° North 149 171 9,700 356 Climbing Boston Center
Fri 07:34:40 PM 43.6536 -74.2250 339° North 149 171 9,900 151 Climbing Boston Center
Fri 07:35:42 PM 43.6972 -74.2406 346° North 149 171 10,000 49 Climbing Boston Center
Fri 07:36:42 PM 43.7406 -74.2564 345° North 156 180 10,000 -51 Level Boston Center
Fri 07:37:40 PM 43.7864 -74.2692 349° North 161 185 9,900 -50 Descending Boston Center
Fri 07:38:41 PM 43.8319 -74.2764 353° North 161 185 9,900  Level Boston Center
Fri 07:39:42 PM 43.8756 -74.2864 351° North 161 185 9,900  Level Boston Center
Fri 07:40:40 PM 43.9214 -74.2878 359° North 161 185 9,900  Level Boston Center
Fri 07:41:41 PM 43.9650 -74.2978 351° North 161 185 9,900 -50 Level Boston Center
Fri 07:42:41 PM 44.0022 -74.3161 340° North 155 178 9,800  Descending Boston Center
Fri 07:43:42 PM 44.0456 -74.3378 340° North 155 178 9,900 99 Climbing Boston Center
Fri 07:44:42 PM 44.0869 -74.3536 345° North 155 178 10,000 51 Climbing Boston Center
Fri 07:45:40 PM 44.1283 -74.3722 342° North 150 173 10,000 -51 Level Boston Center
Fri 07:46:40 PM 44.1719 -74.3939 340° North 150 173 9,900 -248 Descending Boston Center
Fri 07:47:41 PM 44.2172 -74.4156 341° North 156 180 9,500 -443 Descending Boston Center
Fri 07:48:42 PM 44.2669 -74.4406 340° North 172 198 9,000 -504 Descending Boston Center
Fri 07:49:40 PM 44.3164 -74.4625 342° North 178 205 8,500 -555 Descending Boston Center
Fri 07:50:41 PM 44.3661 -74.4844 342° North 184 212 7,900 -590 Descending Boston Center
Fri 07:51:42 PM 44.4156 -74.5094 340° North 184 212 7,300 -595 Descending Boston Center
Fri 07:52:42 PM 44.4631 -74.5372 337° Northwest 184 212 6,700 -508 Descending Boston Center
Fri 07:53:40 PM 44.5042 -74.5650 334° Northwest 184 212 6,300 -458 Descending Boston Center
Fri 07:54:40 PM 44.5539 -74.5900 340° North 179 206 5,800 -496 Descending Boston Center
Fri 07:55:41 PM 44.5992 -74.6122 341° North 179 206 5,300 -492 Descending Boston Center

Login

Don't have an account? Register now (free) for customized features, flight alerts, and more!